createdAt,value
2022-07-26T00:00:14.881Z,6.15
2022-07-26T00:02:47.928Z,5.63
2022-07-26T00:05:17.099Z,5.57
2022-07-26T00:07:44.812Z,5.32
2022-07-26T00:10:12.757Z,5.10
2022-07-26T00:12:40.395Z,4.82
2022-07-26T00:15:10.180Z,5.10
2022-07-26T00:17:37.864Z,4.80
2022-07-26T00:20:05.791Z,4.45
2022-07-26T00:22:35.972Z,4.25
2022-07-26T00:25:06.509Z,4.25
2022-07-26T00:27:37.443Z,4.25
2022-07-26T00:30:07.157Z,4.15
2022-07-26T00:32:34.563Z,4.03
2022-07-26T00:35:01.813Z,3.90
2022-07-26T00:37:30.929Z,3.70
2022-07-26T00:39:58.183Z,3.95
2022-07-26T00:42:25.335Z,3.80
2022-07-26T00:44:52.599Z,3.72
2022-07-26T00:47:20.020Z,3.60
2022-07-26T00:49:47.304Z,4.05
2022-07-26T00:52:14.742Z,3.95
2022-07-26T00:54:45.987Z,3.45
2022-07-26T00:57:14.244Z,3.70
2022-07-26T00:59:41.786Z,3.97
2022-07-26T01:02:10.316Z,3.13
2022-07-26T01:04:37.777Z,3.50
2022-07-26T01:07:15.058Z,3.13
2022-07-26T01:09:43.767Z,3.28
2022-07-26T01:12:11.488Z,3.88
2022-07-26T01:14:38.665Z,3.33
2022-07-26T01:17:05.970Z,3.35
2022-07-26T01:19:33.535Z,3.22
2022-07-26T01:22:01.877Z,3.90
2022-07-26T01:24:29.283Z,2.95
2022-07-26T01:26:57.157Z,3.90
2022-07-26T01:29:34.623Z,3.33
2022-07-26T01:32:05.225Z,3.38
2022-07-26T01:34:32.636Z,3.80
2022-07-26T01:37:00.368Z,3.45
2022-07-26T01:39:29.237Z,3.55
2022-07-26T01:41:57.035Z,3.70
2022-07-26T01:44:24.616Z,4.03
2022-07-26T01:46:52.079Z,3.67
2022-07-26T01:49:19.695Z,3.95
2022-07-26T01:51:47.143Z,3.88
2022-07-26T01:54:14.679Z,3.80
2022-07-26T01:56:49.929Z,4.07
2022-07-26T01:59:17.136Z,3.90
2022-07-26T02:01:44.470Z,4.05
2022-07-26T02:04:31.653Z,3.70
2022-07-26T02:06:58.968Z,4.40
2022-07-26T02:09:26.093Z,3.78
2022-07-26T02:11:56.156Z,3.83
2022-07-26T02:14:25.594Z,4.45
2022-07-26T02:17:00.060Z,3.92
2022-07-26T02:19:31.718Z,4.45
2022-07-26T02:21:59.854Z,4.47
2022-07-26T02:24:29.219Z,3.95
2022-07-26T02:26:57.763Z,3.80
2022-07-26T02:29:25.746Z,4.03
2022-07-26T02:31:54.975Z,3.83
2022-07-26T02:34:22.273Z,3.70
2022-07-26T02:36:50.159Z,4.20
2022-07-26T02:39:17.675Z,4.82
2022-07-26T02:41:45.240Z,4.05
2022-07-26T02:44:12.628Z,4.80
2022-07-26T02:46:40.078Z,4.57
2022-07-26T02:49:07.694Z,4.40
2022-07-26T02:51:34.936Z,4.15
2022-07-26T02:54:02.373Z,4.32
2022-07-26T02:56:30.143Z,4.65
2022-07-26T02:58:58.516Z,4.45
2022-07-26T03:01:25.804Z,3.80
2022-07-26T03:03:53.195Z,4.22
2022-07-26T03:06:20.504Z,3.92
2022-07-26T03:08:48.705Z,4.70
2022-07-26T03:11:16.356Z,5.05
2022-07-26T03:13:43.671Z,5.30
2022-07-26T03:16:10.964Z,5.00
2022-07-26T03:18:39.164Z,4.80
2022-07-26T03:21:06.861Z,4.90
2022-07-26T03:23:35.146Z,4.25
2022-07-26T03:26:03.374Z,4.15
2022-07-26T03:28:31.819Z,4.03
2022-07-26T03:30:59.461Z,4.45
2022-07-26T03:33:26.819Z,4.07
2022-07-26T03:35:54.309Z,3.92
2022-07-26T03:38:22.355Z,3.83
2022-07-26T03:40:49.631Z,4.00
2022-07-26T03:43:20.084Z,4.00
2022-07-26T03:45:50.929Z,4.07
2022-07-26T03:48:21.489Z,4.18
2022-07-26T03:50:48.656Z,4.07
2022-07-26T03:53:15.908Z,4.50
2022-07-26T03:56:01.702Z,4.18
2022-07-26T03:58:28.980Z,4.45
2022-07-26T04:00:56.193Z,5.40
2022-07-26T04:03:23.383Z,5.00
2022-07-26T04:05:50.623Z,4.55
2022-07-26T04:08:20.065Z,4.28
2022-07-26T04:10:51.429Z,4.55
2022-07-26T04:13:20.020Z,4.50
2022-07-26T04:15:47.632Z,4.70
2022-07-26T04:18:15.294Z,4.50
2022-07-26T04:20:43.071Z,4.35
2022-07-26T04:23:11.583Z,4.85
2022-07-26T04:25:41.565Z,4.15
2022-07-26T04:28:10.466Z,4.32
2022-07-26T04:30:38.924Z,3.90
2022-07-26T04:33:06.594Z,4.47
2022-07-26T04:35:35.074Z,4.40
2022-07-26T04:38:02.702Z,4.10
2022-07-26T04:40:33.765Z,4.22
2022-07-26T04:43:02.287Z,4.30
2022-07-26T04:45:30.306Z,4.68
2022-07-26T04:47:58.069Z,4.10
2022-07-26T04:50:28.234Z,3.92
2022-07-26T04:52:56.379Z,4.47
2022-07-26T04:55:24.310Z,4.95
2022-07-26T04:57:51.956Z,4.45
2022-07-26T05:00:24.262Z,4.72
2022-07-26T05:02:59.390Z,4.18
2022-07-26T05:05:29.805Z,4.20
2022-07-26T05:08:02.973Z,5.40
2022-07-26T05:10:35.996Z,4.22
2022-07-26T05:13:06.092Z,4.03
2022-07-26T05:15:36.786Z,5.28
2022-07-26T05:18:10.321Z,4.90
2022-07-26T05:20:39.164Z,4.95
2022-07-26T05:23:06.870Z,4.50
2022-07-26T05:25:34.703Z,4.70
2022-07-26T05:28:02.266Z,4.35
2022-07-26T05:30:29.947Z,4.57
2022-07-26T05:32:57.267Z,5.90
2022-07-26T05:35:24.709Z,5.00
2022-07-26T05:37:51.989Z,4.82
2022-07-26T05:40:19.612Z,4.75
2022-07-26T05:42:49.119Z,4.72
2022-07-26T05:45:17.305Z,4.97
2022-07-26T05:47:44.577Z,5.22
2022-07-26T05:50:12.006Z,5.10
2022-07-26T05:52:39.796Z,4.97
2022-07-26T05:55:07.929Z,6.90
2022-07-26T05:57:35.320Z,5.05
2022-07-26T06:00:03.295Z,5.20
2022-07-26T06:02:43.798Z,6.05
2022-07-26T06:05:13.282Z,5.75
2022-07-26T06:07:40.516Z,5.88
2022-07-26T06:10:08.302Z,5.20
2022-07-26T06:12:36.049Z,4.82
2022-07-26T06:15:04.252Z,5.43
2022-07-26T06:17:43.426Z,5.28
2022-07-26T06:20:11.217Z,5.07
2022-07-26T06:22:38.505Z,5.18
2022-07-26T06:25:06.329Z,5.30
2022-07-26T06:27:33.550Z,5.35
2022-07-26T06:30:00.801Z,5.10
2022-07-26T06:32:28.167Z,4.90
2022-07-26T06:34:55.632Z,4.63
2022-07-26T06:37:23.208Z,4.07
2022-07-26T06:39:50.344Z,3.47
2022-07-26T06:42:17.697Z,3.70
2022-07-26T06:44:46.408Z,3.65
2022-07-26T06:47:14.453Z,3.63
2022-07-26T06:49:42.036Z,3.90
2022-07-26T06:52:09.255Z,3.67
2022-07-26T06:54:36.672Z,3.65
2022-07-26T06:57:06.454Z,3.63
2022-07-26T06:59:34.103Z,3.70
2022-07-26T07:02:04.419Z,3.63
2022-07-26T07:04:33.394Z,3.50
2022-07-26T07:07:05.134Z,4.07
2022-07-26T07:09:34.482Z,3.95
2022-07-26T07:12:10.307Z,4.20
2022-07-26T07:14:39.374Z,4.10
2022-07-26T07:17:12.173Z,4.50
2022-07-26T07:19:43.109Z,4.75
2022-07-26T07:22:12.533Z,4.20
2022-07-26T07:24:41.312Z,4.32
2022-07-26T07:27:10.602Z,4.55
2022-07-26T07:29:38.913Z,3.90
2022-07-26T07:32:09.034Z,3.28
2022-07-26T07:34:48.370Z,3.60
2022-07-26T07:37:16.904Z,3.72
2022-07-26T07:39:50.113Z,4.18
2022-07-26T07:42:19.480Z,3.78
2022-07-26T07:44:47.370Z,3.88
2022-07-26T07:47:14.933Z,3.20
2022-07-26T07:49:42.455Z,3.20
2022-07-26T07:52:09.774Z,3.30
2022-07-26T07:54:37.527Z,3.50
2022-07-26T07:57:05.507Z,2.90
2022-07-26T07:59:33.152Z,3.30
2022-07-26T08:02:06.881Z,2.77
2022-07-26T08:04:34.196Z,2.92
2022-07-26T08:07:01.431Z,3.05
2022-07-26T08:09:28.851Z,2.95
2022-07-26T08:11:56.425Z,3.22
2022-07-26T08:14:24.483Z,3.38
2022-07-26T08:16:52.347Z,3.70
2022-07-26T08:19:19.614Z,3.40
2022-07-26T08:21:49.870Z,3.70
2022-07-26T08:24:17.846Z,4.93
2022-07-26T08:26:45.137Z,4.10
2022-07-26T08:29:14.744Z,4.03
2022-07-26T08:31:43.001Z,4.30
2022-07-26T08:34:12.132Z,3.92
2022-07-26T08:36:49.597Z,4.60
2022-07-26T08:39:26.881Z,3.70
2022-07-26T08:41:54.564Z,4.30
2022-07-26T08:44:21.940Z,4.47
2022-07-26T08:46:49.387Z,4.18
2022-07-26T08:49:16.701Z,4.78
2022-07-26T08:51:44.816Z,5.03
2022-07-26T08:54:14.465Z,5.03
2022-07-26T08:56:49.900Z,4.30
2022-07-26T08:59:21.323Z,3.72
2022-07-26T09:02:08.138Z,4.22
2022-07-26T09:04:44.201Z,4.50
2022-07-26T09:07:17.568Z,3.95
2022-07-26T09:10:17.421Z,4.00
2022-07-26T09:12:45.505Z,3.80
2022-07-26T09:15:25.295Z,4.32
2022-07-26T09:17:55.854Z,4.55
2022-07-26T09:20:32.339Z,3.90
2022-07-26T09:23:06.979Z,4.67
2022-07-26T09:25:43.555Z,4.63
2022-07-26T09:28:30.539Z,4.28
2022-07-26T09:31:02.292Z,5.10
2022-07-26T09:33:50.457Z,4.07
2022-07-26T09:36:19.599Z,4.25
2022-07-26T09:38:53.456Z,3.60
2022-07-26T09:41:29.818Z,3.40
2022-07-26T09:44:01.848Z,3.22
2022-07-26T09:46:31.091Z,3.40
2022-07-26T09:49:16.626Z,3.22
2022-07-26T09:51:47.087Z,3.40
2022-07-26T09:54:29.687Z,3.40
2022-07-26T09:56:58.333Z,3.22
2022-07-26T09:59:29.971Z,3.05
2022-07-26T10:02:00.654Z,3.10
2022-07-26T10:04:30.813Z,2.70
2022-07-26T10:06:58.404Z,2.80
2022-07-26T10:09:31.678Z,2.97
2022-07-26T10:12:08.635Z,2.70
2022-07-26T10:14:45.668Z,2.88
2022-07-26T10:17:35.683Z,3.00
2022-07-26T10:20:10.730Z,2.78
2022-07-26T10:22:50.761Z,2.85
2022-07-26T10:25:18.209Z,2.83
2022-07-26T10:27:50.781Z,2.70
2022-07-26T10:30:22.713Z,2.88
2022-07-26T10:33:01.695Z,2.90
2022-07-26T10:35:35.111Z,2.63
2022-07-26T10:38:24.320Z,3.42
2022-07-26T10:41:03.578Z,2.70
2022-07-26T10:43:41.260Z,2.83
2022-07-26T10:46:31.133Z,2.80
2022-07-26T10:49:08.963Z,2.80
2022-07-26T10:51:41.722Z,2.60
2022-07-26T10:54:12.315Z,3.33
2022-07-26T10:56:41.021Z,3.08
2022-07-26T10:59:08.520Z,3.20
2022-07-26T11:01:43.441Z,3.00
2022-07-26T11:04:22.210Z,2.83
2022-07-26T11:06:50.129Z,3.10
2022-07-26T11:09:20.703Z,2.90
2022-07-26T11:11:49.076Z,2.50
2022-07-26T11:14:18.182Z,2.75
2022-07-26T11:16:52.811Z,2.95
2022-07-26T11:19:22.181Z,3.13
2022-07-26T11:22:00.254Z,2.42
2022-07-26T11:24:28.833Z,2.75
2022-07-26T11:26:57.263Z,2.53
2022-07-26T11:29:39.102Z,2.60
2022-07-26T11:32:25.430Z,2.50
2022-07-26T11:37:31.759Z,2.55
2022-07-26T11:39:59.166Z,2.30
2022-07-26T11:42:26.659Z,2.75
2022-07-26T11:44:54.410Z,2.28
2022-07-26T11:47:25.283Z,2.40
2022-07-26T11:50:12.853Z,2.35
2022-07-26T11:52:42.084Z,2.50
2022-07-26T11:55:10.245Z,2.50
2022-07-26T11:57:38.356Z,2.45
2022-07-26T12:00:06.583Z,2.55
2022-07-26T12:02:39.873Z,2.60
2022-07-26T12:05:15.554Z,2.88
2022-07-26T12:08:01.030Z,2.60
2022-07-26T12:10:29.028Z,2.40
2022-07-26T12:13:14.014Z,2.45
2022-07-26T12:15:50.428Z,2.58
2022-07-26T12:18:26.082Z,3.08
2022-07-26T12:21:06.043Z,3.05
2022-07-26T12:23:48.958Z,2.80
2022-07-26T12:26:23.765Z,2.78
2022-07-26T12:28:51.712Z,3.10
2022-07-26T12:31:27.023Z,2.83
2022-07-26T12:33:54.811Z,2.60
2022-07-26T12:36:28.468Z,2.80
2022-07-26T12:38:59.985Z,2.70
2022-07-26T12:41:39.329Z,2.83
2022-07-26T12:44:11.872Z,2.78
2022-07-26T12:46:40.359Z,3.08
2022-07-26T12:49:07.699Z,2.95
2022-07-26T12:51:35.160Z,2.70
2022-07-26T12:54:03.697Z,2.80
2022-07-26T12:56:31.231Z,3.22
2022-07-26T12:59:02.297Z,4.30
2022-07-26T13:01:32.773Z,6.25
2022-07-26T13:04:01.023Z,4.43
2022-07-26T13:06:28.534Z,7.35
2022-07-26T13:08:56.766Z,4.95
2022-07-26T13:11:25.142Z,3.50
2022-07-26T13:13:52.977Z,6.45
2022-07-26T13:16:20.318Z,6.18
2022-07-26T13:18:47.817Z,5.65
2022-07-26T13:21:15.051Z,5.68
2022-07-26T13:23:42.305Z,8.32
2022-07-26T13:26:09.557Z,9.02
2022-07-26T13:28:38.195Z,7.07
2022-07-26T13:31:06.016Z,9.35
2022-07-26T13:33:33.933Z,5.95
2022-07-26T13:36:01.275Z,7.50
2022-07-26T13:38:29.261Z,4.65
2022-07-26T13:40:56.670Z,3.95
2022-07-26T13:43:24.703Z,3.70
2022-07-26T13:45:52.054Z,3.92
2022-07-26T13:48:19.394Z,3.88
2022-07-26T13:50:46.906Z,3.58
2022-07-26T13:53:14.166Z,7.53
2022-07-26T13:55:41.519Z,6.35
2022-07-26T13:58:10.156Z,5.00
2022-07-26T14:00:38.399Z,4.20
2022-07-26T14:03:06.035Z,4.15
2022-07-26T14:05:33.830Z,4.10
2022-07-26T14:08:01.659Z,3.78
2022-07-26T14:10:28.765Z,3.33
2022-07-26T14:12:56.127Z,3.25
2022-07-26T14:15:24.135Z,3.13
2022-07-26T14:17:52.733Z,2.88
2022-07-26T14:20:21.679Z,3.42
2022-07-26T14:22:53.524Z,3.53
2022-07-26T14:25:22.478Z,3.13
2022-07-26T14:27:54.329Z,3.30
2022-07-26T14:30:22.777Z,3.47
2022-07-26T14:32:50.408Z,3.90
2022-07-26T14:35:18.066Z,4.25
2022-07-26T14:37:46.039Z,5.20
2022-07-26T14:40:17.781Z,7.00
2022-07-26T14:42:46.605Z,7.05
2022-07-26T14:45:15.098Z,6.18
2022-07-26T14:47:43.280Z,9.88
2022-07-26T14:50:12.323Z,11.68
2022-07-26T14:52:42.536Z,7.38
2022-07-26T14:55:11.225Z,5.13
2022-07-26T14:57:40.359Z,6.40
2022-07-26T15:00:11.267Z,5.32
2022-07-26T15:02:43.795Z,7.18
2022-07-26T15:05:12.980Z,12.55
2022-07-26T15:07:41.793Z,17.05
2022-07-26T15:10:11.287Z,12.90
2022-07-26T15:12:39.265Z,8.88
2022-07-26T15:15:07.769Z,6.32
2022-07-26T15:17:35.679Z,4.70
2022-07-26T15:20:04.063Z,4.30
2022-07-26T15:22:31.598Z,6.25
2022-07-26T15:24:58.883Z,21.70
2022-07-26T15:27:26.189Z,19.05
2022-07-26T15:29:53.502Z,6.90
2022-07-26T15:32:21.576Z,5.80
2022-07-26T15:34:49.187Z,5.00
2022-07-26T15:37:16.513Z,4.15
2022-07-26T15:39:46.707Z,4.00
2022-07-26T15:42:15.364Z,3.80
2022-07-26T15:44:42.976Z,4.15
2022-07-26T15:47:11.718Z,4.53
2022-07-26T15:49:40.283Z,4.10
2022-07-26T15:52:11.599Z,3.88
2022-07-26T15:54:41.527Z,3.97
2022-07-26T15:57:09.527Z,4.05
2022-07-26T15:59:36.833Z,4.30
2022-07-26T16:02:08.375Z,4.15
2022-07-26T16:04:35.978Z,5.07
2022-07-26T16:07:03.296Z,4.75
2022-07-26T16:09:30.536Z,5.32
2022-07-26T16:12:00.488Z,5.50
2022-07-26T16:14:30.190Z,5.55
2022-07-26T16:17:00.537Z,5.40
2022-07-26T16:19:28.729Z,6.00
2022-07-26T16:21:55.958Z,5.30
2022-07-26T16:24:23.191Z,5.22
2022-07-26T16:26:51.425Z,5.20
2022-07-26T16:29:19.195Z,5.32
2022-07-26T16:31:47.106Z,6.40
2022-07-26T16:34:14.769Z,5.93
2022-07-26T16:36:42.936Z,5.60
2022-07-26T16:39:10.349Z,6.15
2022-07-26T16:41:38.093Z,5.22
2022-07-26T16:44:05.777Z,5.85
2022-07-26T16:46:33.122Z,5.65
2022-07-26T16:49:00.431Z,6.40
2022-07-26T16:51:27.900Z,5.55
2022-07-26T16:53:55.369Z,5.93
2022-07-26T16:56:22.639Z,5.50
2022-07-26T16:58:49.803Z,5.47
2022-07-26T17:01:17.293Z,5.60
2022-07-26T17:03:44.605Z,5.45
2022-07-26T17:06:11.953Z,6.05
2022-07-26T17:08:41.125Z,5.57
2022-07-26T17:11:08.542Z,5.75
2022-07-26T17:13:35.794Z,5.70
2022-07-26T17:16:03.771Z,5.88
2022-07-26T17:18:31.135Z,5.80
2022-07-26T17:20:58.478Z,5.90
2022-07-26T17:23:25.715Z,6.13
2022-07-26T17:25:53.498Z,5.75
2022-07-26T17:28:20.668Z,5.70
2022-07-26T17:30:47.878Z,6.78
2022-07-26T17:33:44.467Z,6.22
2022-07-26T17:36:26.359Z,6.03
2022-07-26T17:38:54.818Z,5.35
2022-07-26T17:41:23.484Z,6.22
2022-07-26T17:44:00.015Z,5.88
2022-07-26T17:46:27.236Z,5.40
2022-07-26T17:48:54.607Z,5.88
2022-07-26T17:51:22.009Z,5.50
2022-07-26T17:53:53.288Z,5.25
2022-07-26T17:56:20.764Z,5.40
2022-07-26T17:58:47.952Z,5.10
2022-07-26T18:01:16.094Z,5.07
2022-07-26T18:03:46.781Z,5.20
2022-07-26T18:06:14.394Z,6.28
2022-07-26T18:08:42.614Z,5.80
2022-07-26T18:11:10.957Z,5.68
2022-07-26T18:13:38.892Z,5.45
2022-07-26T18:16:06.602Z,5.00
2022-07-26T18:18:38.774Z,5.20
2022-07-26T18:21:06.357Z,4.90
2022-07-26T18:23:36.886Z,5.40
2022-07-26T18:26:04.577Z,4.90
2022-07-26T18:28:31.896Z,5.43
2022-07-26T18:30:59.272Z,5.15
2022-07-26T18:33:26.596Z,5.57
2022-07-26T18:35:54.150Z,5.45
2022-07-26T18:38:21.702Z,5.28
2022-07-26T18:40:49.525Z,5.20
2022-07-26T18:43:17.083Z,5.53
2022-07-26T18:45:44.606Z,5.47
2022-07-26T18:48:11.926Z,5.53
2022-07-26T18:50:40.981Z,5.80
2022-07-26T18:53:10.911Z,5.38
2022-07-26T18:55:38.160Z,5.70
2022-07-26T18:58:07.679Z,6.05
2022-07-26T19:00:38.775Z,7.05
2022-07-26T19:03:06.310Z,6.28
2022-07-26T19:05:35.528Z,6.43
2022-07-26T19:08:04.733Z,5.60
2022-07-26T19:10:33.013Z,5.97
2022-07-26T19:13:00.494Z,5.57
2022-07-26T19:15:28.224Z,5.57
2022-07-26T19:17:55.895Z,5.72
2022-07-26T19:20:23.214Z,5.85
2022-07-26T19:22:51.411Z,5.60
2022-07-26T19:25:19.173Z,5.15
2022-07-26T19:27:46.569Z,6.45
2022-07-26T19:30:14.040Z,6.00
2022-07-26T19:32:41.527Z,5.47
2022-07-26T19:35:09.541Z,5.10
2022-07-26T19:37:36.906Z,5.45
2022-07-26T19:40:05.690Z,5.28
2022-07-26T19:42:33.361Z,5.22
2022-07-26T19:45:00.834Z,5.50
2022-07-26T19:47:30.062Z,4.80
2022-07-26T19:49:59.456Z,5.03
2022-07-26T19:52:26.839Z,6.38
2022-07-26T19:54:54.416Z,6.13
2022-07-26T19:57:21.905Z,6.97
2022-07-26T19:59:49.355Z,7.90
2022-07-26T20:02:16.932Z,6.30
2022-07-26T20:04:46.189Z,5.35
2022-07-26T20:07:19.768Z,6.60
2022-07-26T20:09:48.440Z,7.32
2022-07-26T20:12:16.592Z,7.78
2022-07-26T20:14:44.578Z,6.10
2022-07-26T20:17:13.469Z,6.00
2022-07-26T20:19:41.245Z,7.40
2022-07-26T20:22:08.656Z,6.00
2022-07-26T20:24:38.137Z,6.90
2022-07-26T20:27:08.473Z,6.43
2022-07-26T20:29:35.802Z,6.05
2022-07-26T20:32:03.473Z,6.20
2022-07-26T20:34:33.419Z,6.50
2022-07-26T20:37:02.578Z,5.70
2022-07-26T20:39:30.215Z,5.65
2022-07-26T20:41:57.420Z,5.63
2022-07-26T20:44:28.125Z,5.57
2022-07-26T20:46:56.812Z,6.00
2022-07-26T20:49:24.280Z,5.88
2022-07-26T20:51:52.243Z,6.03
2022-07-26T20:54:19.730Z,5.97
2022-07-26T20:56:47.190Z,5.80
2022-07-26T20:59:15.085Z,5.75
2022-07-26T21:01:43.936Z,5.95
2022-07-26T21:04:12.108Z,5.60
2022-07-26T21:06:39.565Z,5.95
2022-07-26T21:09:09.264Z,5.32
2022-07-26T21:11:38.918Z,5.30
2022-07-26T21:14:06.390Z,5.22
2022-07-26T21:16:33.719Z,7.55
2022-07-26T21:19:02.133Z,5.85
2022-07-26T21:21:29.473Z,5.72
2022-07-26T21:23:56.681Z,5.22
2022-07-26T21:26:24.022Z,5.78
2022-07-26T21:28:51.297Z,6.50
2022-07-26T21:31:18.637Z,5.93
2022-07-26T21:33:46.057Z,6.40
2022-07-26T21:36:14.509Z,5.55
2022-07-26T21:38:42.057Z,5.38
2022-07-26T21:41:09.566Z,5.60
2022-07-26T21:43:40.807Z,7.55
2022-07-26T21:46:12.501Z,7.95
2022-07-26T21:48:41.462Z,7.53
2022-07-26T21:51:08.976Z,11.55
2022-07-26T21:53:36.569Z,14.25
2022-07-26T21:56:05.795Z,9.80
2022-07-26T21:58:36.676Z,9.07
2022-07-26T22:01:11.212Z,9.50
2022-07-26T22:03:40.402Z,8.30
2022-07-26T22:06:08.640Z,8.93
2022-07-26T22:08:37.041Z,8.00
2022-07-26T22:11:05.180Z,8.50
2022-07-26T22:13:32.408Z,8.30
2022-07-26T22:15:59.919Z,7.97
2022-07-26T22:18:27.334Z,9.10
2022-07-26T22:20:55.579Z,7.65
2022-07-26T22:23:23.396Z,7.47
2022-07-26T22:25:50.590Z,7.50
2022-07-26T22:28:18.655Z,7.00
2022-07-26T22:30:46.817Z,6.88
2022-07-26T22:33:14.116Z,7.55
2022-07-26T22:35:41.265Z,6.95
2022-07-26T22:38:10.535Z,7.70
2022-07-26T22:40:38.911Z,8.02
2022-07-26T22:43:06.382Z,7.45
2022-07-26T22:45:33.949Z,6.93
2022-07-26T22:48:05.188Z,7.00
2022-07-26T22:50:33.178Z,7.28
2022-07-26T22:53:03.577Z,6.60
2022-07-26T22:55:31.145Z,5.97
2022-07-26T22:57:58.638Z,6.57
2022-07-26T23:00:26.253Z,7.18
2022-07-26T23:02:53.876Z,5.95
2022-07-26T23:05:21.185Z,6.35
2022-07-26T23:08:01.758Z,6.32
2022-07-26T23:10:31.076Z,6.70
2022-07-26T23:12:58.243Z,6.35
2022-07-26T23:15:25.541Z,5.88
2022-07-26T23:17:52.941Z,5.38
2022-07-26T23:20:20.505Z,5.28
2022-07-26T23:22:47.771Z,6.78
2022-07-26T23:25:15.093Z,7.20
2022-07-26T23:27:42.235Z,7.43
2022-07-26T23:30:09.702Z,6.75
2022-07-26T23:32:37.029Z,7.03
2022-07-26T23:35:05.508Z,6.95
2022-07-26T23:37:32.817Z,7.80
2022-07-26T23:40:00.413Z,6.80
2022-07-26T23:42:27.508Z,7.30
2022-07-26T23:44:54.895Z,8.07
2022-07-26T23:47:22.159Z,7.47
2022-07-26T23:49:49.306Z,8.27
2022-07-26T23:52:16.806Z,8.35
2022-07-26T23:54:44.097Z,8.52
2022-07-26T23:57:11.482Z,8.18
2022-07-26T23:59:39.004Z,9.27
